Private Wetterstation Sandau
Wetterdaten: Woche 04.03.13 - 10.03.13 (KW10)
Datum Zeit Temp. A. Feuchte A. Luftdruck Regen Wind Richtung Taupunkt Windchill
04.03.2013 00:00 -1,1 C 85 % 1024,1 hPa 0,0 l/m 0,2 km/h (0 Bft) W-SW -3,3 C -1,1 C
04.03.2013 01:00 -1,7 C 86 % 1024,3 hPa 0,0 l/m 0,0 km/h (0 Bft) N -3,7 C -1,7 C
04.03.2013 02:00 -2,4 C 87 % 1024,3 hPa 0,0 l/m 0,0 km/h (0 Bft) N -4,3 C -2,4 C
04.03.2013 03:00 -2,9 C 87 % 1024,2 hPa 0,0 l/m 0,0 km/h (0 Bft) N -4,7 C -2,9 C
04.03.2013 04:00 -2,6 C 88 % 1024,3 hPa 0,0 l/m 0,1 km/h (0 Bft) W-SW -4,3 C -2,6 C
04.03.2013 05:00 -1,3 C 89 % 1024,2 hPa 0,0 l/m 1,6 km/h (1 Bft) SW -2,9 C -1,3 C
04.03.2013 06:00 -1,1 C 90 % 1024,2 hPa 0,0 l/m 0,4 km/h (0 Bft) S -2,5 C -1,1 C
04.03.2013 07:00 -1,1 C 90 % 1024,4 hPa 0,0 l/m 0,2 km/h (0 Bft) S -2,5 C -1,1 C
04.03.2013 08:00 -0,3 C 90 % 1024,7 hPa 0,0 l/m 0,3 km/h (0 Bft) S-SO -1,7 C -0,3 C
04.03.2013 09:00 1,5 C 89 % 1024,7 hPa 0,0 l/m 1,4 km/h (1 Bft) S-SO -0,2 C 1,5 C
04.03.2013 10:00 3,5 C 84 % 1024,6 hPa 0,0 l/m 4,5 km/h (1 Bft) S 1,1 C 2,7 C
04.03.2013 11:00 5,3 C 77 % 1024,6 hPa 0,0 l/m 6,1 km/h (2 Bft) S 1,5 C 4,3 C
04.03.2013 12:00 6,6 C 70 % 1024,2 hPa 0,0 l/m 7,8 km/h (2 Bft) S-SW 1,6 C 5,2 C
04.03.2013 13:00 8,2 C 65 % 1023,5 hPa 0,0 l/m 6,2 km/h (2 Bft) SW 2,0 C 7,4 C
04.03.2013 14:00 9,6 C 60 % 1022,7 hPa 0,0 l/m 5,3 km/h (1 Bft) S-SW 2,2 C 9,4 C
04.03.2013 15:00 10,3 C 55 % 1022,1 hPa 0,0 l/m 7,4 km/h (2 Bft) SW 1,7 C 10,3 C
04.03.2013 16:00 9,7 C 56 % 1021,6 hPa 0,0 l/m 6,5 km/h (2 Bft) S-SW 1,2 C 9,1 C
04.03.2013 17:00 7,6 C 60 % 1021,4 hPa 0,0 l/m 3,2 km/h (1 Bft) S-SO 0,5 C 7,5 C
04.03.2013 18:00 5,4 C 66 % 1021,4 hPa 0,0 l/m 3,5 km/h (1 Bft) SO -0,4 C 5,1 C
04.03.2013 19:00 3,9 C 70 % 1021,2 hPa 0,0 l/m 4,3 km/h (1 Bft) SO -1,1 C 3,3 C
04.03.2013 20:00 2,8 C 73 % 1021,0 hPa 0,0 l/m 3,3 km/h (1 Bft) SO -1,6 C 2,7 C
04.03.2013 21:00 2,1 C 75 % 1020,9 hPa 0,0 l/m 5,1 km/h (1 Bft) S-SO -1,9 C 1,2 C
04.03.2013 22:00 2,7 C 73 % 1020,6 hPa 0,0 l/m 6,7 km/h (2 Bft) SO -1,7 C 0,9 C
04.03.2013 23:00 1,7 C 75 % 1020,0 hPa 0,0 l/m 3,2 km/h (1 Bft) SO -2,4 C 1,4 C
05.03.2013 00:00 0,6 C 79 % 1019,3 hPa 0,0 l/m 3,6 km/h (1 Bft) O-SO -2,7 C 0,2 C
05.03.2013 01:00 0,1 C 81 % 1018,9 hPa 0,0 l/m 3,5 km/h (1 Bft) SO -2,8 C -0,3 C
05.03.2013 02:00 -0,3 C 82 % 1018,4 hPa 0,0 l/m 2,9 km/h (1 Bft) O-SO -3,0 C -0,5 C
05.03.2013 03:00 -0,7 C 83 % 1017,8 hPa 0,0 l/m 3,2 km/h (1 Bft) SO -3,2 C -1,0 C
05.03.2013 04:00 -1,1 C 84 % 1017,4 hPa 0,0 l/m 4,1 km/h (1 Bft) O-SO -3,4 C -2,0 C
05.03.2013 05:00 -1,3 C 86 % 1016,8 hPa 0,0 l/m 5,3 km/h (1 Bft) O-SO -3,4 C -2,7 C
05.03.2013 06:00 -1,3 C 86 % 1016,3 hPa 0,0 l/m 6,9 km/h (2 Bft) SO -3,3 C -3,6 C
05.03.2013 07:00 -1,3 C 86 % 1015,9 hPa 0,0 l/m 5,8 km/h (2 Bft) SO -3,3 C -3,1 C
05.03.2013 08:00 0,2 C 85 % 1015,7 hPa 0,0 l/m 5,3 km/h (1 Bft) S-SO -2,1 C -1,2 C
05.03.2013 09:00 2,6 C 79 % 1015,4 hPa 0,0 l/m 4,4 km/h (1 Bft) SO -0,7 C 2,0 C
05.03.2013 10:00 5,0 C 69 % 1015,0 hPa 0,0 l/m 4,0 km/h (1 Bft) SO -0,2 C 4,6 C
05.03.2013 11:00 7,0 C 59 % 1014,4 hPa 0,0 l/m 5,8 km/h (2 Bft) O-SO -0,4 C 6,2 C
05.03.2013 12:00 8,6 C 56 % 1013,7 hPa 0,0 l/m 6,6 km/h (2 Bft) SO 0,2 C 7,7 C
05.03.2013 13:00 10,7 C 50 % 1012,8 hPa 0,0 l/m 5,7 km/h (1 Bft) O-SO 0,6 C 10,5 C
05.03.2013 14:00 11,8 C 45 % 1012,2 hPa 0,0 l/m 9,9 km/h (2 Bft) SO 0,2 C 11,8 C
05.03.2013 15:00 12,3 C 43 % 1011,7 hPa 0,0 l/m 6,8 km/h (2 Bft) SO 0,0 C 12,3 C
05.03.2013 16:00 11,7 C 44 % 1011,1 hPa 0,0 l/m 7,5 km/h (2 Bft) SO -0,1 C 11,7 C
05.03.2013 17:00 9,9 C 50 % 1011,0 hPa 0,0 l/m 6,4 km/h (2 Bft) S-SO -0,1 C 9,5 C
05.03.2013 18:00 7,8 C 57 % 1010,9 hPa 0,0 l/m 5,3 km/h (1 Bft) S-SO -0,2 C 7,3 C
05.03.2013 19:00 6,1 C 63 % 1010,6 hPa 0,0 l/m 3,7 km/h (1 Bft) SO -0,4 C 5,8 C
05.03.2013 20:00 4,4 C 70 % 1010,3 hPa 0,0 l/m 3,9 km/h (1 Bft) SO -0,6 C 4,0 C
05.03.2013 21:00 2,8 C 74 % 1009,9 hPa 0,0 l/m 1,7 km/h (1 Bft) O-SO -1,4 C 2,8 C
05.03.2013 22:00 2,7 C 77 % 1009,6 hPa 0,0 l/m 3,5 km/h (1 Bft) O -0,9 C 2,3 C
05.03.2013 23:00 2,0 C 79 % 1009,3 hPa 0,0 l/m 2,7 km/h (1 Bft) O-SO -1,3 C 1,9 C
06.03.2013 00:00 1,0 C 81 % 1009,1 hPa 0,0 l/m 2,7 km/h (1 Bft) SO -1,8 C 0,9 C
06.03.2013 01:00 0,4 C 84 % 1008,8 hPa 0,0 l/m 3,1 km/h (1 Bft) O-SO -2,0 C -0,0 C
06.03.2013 02:00 -0,1 C 85 % 1008,4 hPa 0,0 l/m 3,2 km/h (1 Bft) O-SO -2,2 C -0,5 C
06.03.2013 03:00 -0,8 C 87 % 1008,1 hPa 0,0 l/m 2,6 km/h (1 Bft) O-SO -2,7 C -0,8 C
06.03.2013 04:00 -0,9 C 88 % 1007,9 hPa 0,0 l/m 4,1 km/h (1 Bft) O -2,6 C -1,7 C
06.03.2013 05:00 -1,2 C 88 % 1007,7 hPa 0,0 l/m 3,4 km/h (1 Bft) O-SO -2,9 C -1,7 C
06.03.2013 06:00 -1,5 C 89 % 1007,4 hPa 0,0 l/m 3,2 km/h (1 Bft) O-SO -3,1 C -2,0 C
06.03.2013 07:00 -1,1 C 89 % 1007,5 hPa 0,0 l/m 1,9 km/h (1 Bft) O-NO -2,6 C -1,1 C
06.03.2013 08:00 -0,1 C 89 % 1007,6 hPa 0,0 l/m 1,9 km/h (1 Bft) O-SO -1,7 C -0,1 C
06.03.2013 09:00 1,4 C 87 % 1007,8 hPa 0,0 l/m 1,3 km/h (1 Bft) O-NO -0,6 C 1,4 C
06.03.2013 10:00 3,2 C 83 % 1007,6 hPa 0,0 l/m 1,6 km/h (1 Bft) O-SO 0,6 C 3,2 C
06.03.2013 11:00 4,8 C 78 % 1007,1 hPa 0,0 l/m 3,9 km/h (1 Bft) SO 1,3 C 4,2 C
06.03.2013 12:00 7,0 C 71 % 1006,6 hPa 0,0 l/m 3,4 km/h (1 Bft) O-SO 2,1 C 6,7 C
06.03.2013 13:00 9,1 C 65 % 1006,3 hPa 0,0 l/m 1,6 km/h (1 Bft) O-SO 2,9 C 9,1 C
06.03.2013 14:00 10,3 C 59 % 1006,0 hPa 0,0 l/m 3,4 km/h (1 Bft) O-NO 2,7 C 10,3 C
06.03.2013 15:00 11,0 C 56 % 1005,9 hPa 0,0 l/m 3,4 km/h (1 Bft) O-NO 2,6 C 11,0 C
06.03.2013 16:00 10,1 C 59 % 1005,7 hPa 0,0 l/m 2,6 km/h (1 Bft) O-NO 2,4 C 10,1 C
06.03.2013 17:00 8,5 C 65 % 1005,5 hPa 0,0 l/m 2,7 km/h (1 Bft) NO 2,3 C 8,4 C
06.03.2013 18:00 6,6 C 69 % 1005,8 hPa 0,0 l/m 0,6 km/h (0 Bft) O-NO 1,4 C 6,6 C
06.03.2013 19:00 4,4 C 77 % 1006,2 hPa 0,0 l/m 1,3 km/h (1 Bft) O-NO 0,7 C 4,4 C
06.03.2013 20:00 4,9 C 77 % 1006,3 hPa 0,0 l/m 2,9 km/h (1 Bft) NO 1,2 C 4,8 C
06.03.2013 21:00 4,6 C 76 % 1006,5 hPa 0,0 l/m 3,8 km/h (1 Bft) NO 0,7 C 4,3 C
06.03.2013 22:00 3,8 C 78 % 1006,6 hPa 0,0 l/m 3,9 km/h (1 Bft) O-SO 0,3 C 3,4 C
06.03.2013 23:00 3,3 C 80 % 1006,1 hPa 0,0 l/m 3,6 km/h (1 Bft) O-NO 0,1 C 2,7 C
07.03.2013 00:00 3,2 C 81 % 1005,6 hPa 0,0 l/m 4,2 km/h (1 Bft) O-NO 0,2 C 2,6 C
07.03.2013 01:00 2,9 C 81 % 1005,5 hPa 0,0 l/m 4,9 km/h (1 Bft) O-NO -0,0 C 2,1 C
07.03.2013 02:00 2,2 C 83 % 1005,6 hPa 0,0 l/m 3,8 km/h (1 Bft) O-NO -0,5 C 1,6 C
07.03.2013 03:00 1,9 C 84 % 1005,4 hPa 0,0 l/m 4,9 km/h (1 Bft) O-NO -0,5 C 0,9 C
07.03.2013 04:00 1,5 C 84 % 1005,3 hPa 0,0 l/m 4,3 km/h (1 Bft) O-NO -0,8 C 0,9 C
07.03.2013 05:00 1,7 C 85 % 1005,3 hPa 0,0 l/m 4,8 km/h (1 Bft) O-NO -0,6 C 0,8 C
07.03.2013 06:00 1,8 C 84 % 1005,6 hPa 0,0 l/m 6,3 km/h (2 Bft) O-NO -0,6 C 0,2 C
07.03.2013 07:00 2,0 C 83 % 1006,2 hPa 0,0 l/m 9,2 km/h (2 Bft) O-NO -0,6 C -0,7 C
07.03.2013 08:00 2,8 C 81 % 1006,3 hPa 0,0 l/m 9,3 km/h (2 Bft) O-NO -0,2 C 0,3 C
07.03.2013 09:00 4,1 C 77 % 1006,4 hPa 0,0 l/m 10,1 km/h (2 Bft) O-NO 0,4 C 1,8 C
07.03.2013 10:00 5,3 C 72 % 1006,2 hPa 0,0 l/m 10,8 km/h (2 Bft) O-NO 0,7 C 3,0 C
07.03.2013 11:00 6,9 C 67 % 1006,2 hPa 0,0 l/m 11,8 km/h (2 Bft) O-NO 1,3 C 4,8 C
07.03.2013 12:00 7,6 C 65 % 1006,2 hPa 0,0 l/m 11,9 km/h (2 Bft) O-NO 1,3 C 5,6 C
07.03.2013 13:00 7,7 C 63 % 1006,2 hPa 0,0 l/m 13,8 km/h (3 Bft) O-NO 1,2 C 5,3 C
07.03.2013 14:00 7,7 C 64 % 1006,0 hPa 0,0 l/m 13,5 km/h (3 Bft) O 1,3 C 5,3 C
07.03.2013 15:00 7,8 C 65 % 1006,1 hPa 0,0 l/m 10,2 km/h (2 Bft) O-NO 1,5 C 6,1 C
07.03.2013 16:00 7,5 C 63 % 1006,2 hPa 0,0 l/m 14,2 km/h (3 Bft) O-SO 1,0 C 5,0 C
07.03.2013 17:00 7,3 C 64 % 1006,2 hPa 0,0 l/m 8,6 km/h (2 Bft) O-NO 0,8 C 5,8 C
07.03.2013 18:00 6,2 C 65 % 1006,6 hPa 0,0 l/m 8,9 km/h (2 Bft) O-NO 0,1 C 4,4 C
07.03.2013 19:00 5,4 C 66 % 1007,2 hPa 0,0 l/m 7,5 km/h (2 Bft) O-NO -0,5 C 3,8 C
07.03.2013 20:00 5,1 C 65 % 1007,4 hPa 0,0 l/m 10,1 km/h (2 Bft) O-NO -0,9 C 3,0 C
07.03.2013 21:00 5,2 C 63 % 1007,7 hPa 0,0 l/m 6,8 km/h (2 Bft) O-NO -1,2 C 4,0 C
07.03.2013 22:00 5,3 C 64 % 1007,8 hPa 0,0 l/m 7,7 km/h (2 Bft) O-NO -1,1 C 3,7 C
07.03.2013 23:00 5,4 C 71 % 1007,8 hPa 0,0 l/m 11,8 km/h (2 Bft) SO 0,6 C 2,9 C
08.03.2013 00:00 5,1 C 73 % 1008,0 hPa 0,0 l/m 12,7 km/h (3 Bft) O-SO 0,7 C 2,5 C
08.03.2013 01:00 4,3 C 71 % 1008,2 hPa 0,0 l/m 16,6 km/h (3 Bft) SO -0,4 C 0,8 C
08.03.2013 02:00 3,2 C 73 % 1008,6 hPa 0,0 l/m 15,4 km/h (3 Bft) SO -1,2 C -0,3 C
08.03.2013 03:00 1,6 C 82 % 1008,6 hPa 0,0 l/m 14,2 km/h (3 Bft) O -1,2 C -2,2 C
08.03.2013 04:00 1,0 C 86 % 1008,5 hPa 0,0 l/m 15,5 km/h (3 Bft) O-NO -1,1 C -3,2 C
08.03.2013 05:00 0,8 C 87 % 1008,7 hPa 0,0 l/m 9,0 km/h (2 Bft) O-NO -1,1 C -1,9 C
08.03.2013 06:00 0,8 C 87 % 1008,6 hPa 0,5 l/m 11,8 km/h (2 Bft) O -1,1 C -2,7 C
08.03.2013 07:00 0,7 C 88 % 1008,8 hPa 0,0 l/m 12,4 km/h (3 Bft) O-SO -1,1 C -2,9 C
08.03.2013 08:00 0,6 C 88 % 1009,0 hPa 0,0 l/m 14,2 km/h (3 Bft) O-SO -1,1 C -3,4 C
08.03.2013 09:00 0,8 C 85 % 1009,1 hPa 0,0 l/m 13,7 km/h (3 Bft) O -1,4 C -3,1 C
08.03.2013 10:00 1,2 C 83 % 1009,2 hPa 0,0 l/m 13,9 km/h (3 Bft) SO -1,4 C -2,6 C
08.03.2013 11:00 1,4 C 82 % 1009,3 hPa 0,0 l/m 14,1 km/h (3 Bft) O -1,4 C -2,4 C
08.03.2013 12:00 1,6 C 80 % 1009,2 hPa 0,0 l/m 18,0 km/h (3 Bft) O-SO -1,5 C -2,9 C
08.03.2013 13:00 1,6 C 79 % 1008,9 hPa 0,0 l/m 14,8 km/h (3 Bft) O-NO -1,6 C -2,3 C
08.03.2013 14:00 1,5 C 79 % 1008,8 hPa 0,0 l/m 18,0 km/h (3 Bft) O-NO -1,7 C -2,7 C
08.03.2013 15:00 1,4 C 80 % 1008,9 hPa 0,0 l/m 10,3 km/h (2 Bft) O-SO -1,7 C -1,5 C
08.03.2013 16:00 1,3 C 79 % 1009,1 hPa 0,0 l/m 12,5 km/h (3 Bft) SO -1,9 C -2,2 C
08.03.2013 17:00 1,3 C 77 % 1009,2 hPa 0,0 l/m 14,8 km/h (3 Bft) SO -2,3 C -2,6 C
08.03.2013 18:00 1,3 C 76 % 1009,3 hPa 0,0 l/m 14,8 km/h (3 Bft) SO -2,5 C -2,7 C
08.03.2013 19:00 1,3 C 76 % 1009,6 hPa 0,0 l/m 10,1 km/h (2 Bft) SO -2,4 C -1,6 C
08.03.2013 20:00 1,4 C 77 % 1009,5 hPa 0,0 l/m 12,3 km/h (3 Bft) O-SO -2,3 C -1,9 C
08.03.2013 21:00 1,3 C 77 % 1009,2 hPa 0,0 l/m 12,1 km/h (2 Bft) SO -2,3 C -2,1 C
08.03.2013 22:00 1,3 C 77 % 1009,0 hPa 0,0 l/m 11,0 km/h (2 Bft) O -2,3 C -1,8 C
08.03.2013 23:00 1,3 C 77 % 1009,2 hPa 0,0 l/m 10,5 km/h (2 Bft) O -2,3 C -1,8 C
09.03.2013 00:00 1,1 C 78 % 1009,1 hPa 0,0 l/m 11,7 km/h (2 Bft) O-SO -2,3 C -2,2 C
09.03.2013 01:00 0,9 C 78 % 1009,1 hPa 0,0 l/m 9,6 km/h (2 Bft) O-SO -2,4 C -1,9 C
09.03.2013 02:00 0,8 C 79 % 1008,8 hPa 0,0 l/m 8,4 km/h (2 Bft) O-SO -2,4 C -1,5 C
09.03.2013 03:00 0,7 C 79 % 1008,5 hPa 0,0 l/m 8,3 km/h (2 Bft) SO -2,6 C -1,8 C
09.03.2013 04:00 0,5 C 79 % 1008,2 hPa 0,0 l/m 10,5 km/h (2 Bft) O-SO -2,7 C -2,7 C
09.03.2013 05:00 0,4 C 79 % 1008,1 hPa 0,0 l/m 7,0 km/h (2 Bft) SO -2,8 C -1,7 C
09.03.2013 06:00 0,2 C 79 % 1007,7 hPa 0,0 l/m 9,4 km/h (2 Bft) O -3,0 C -2,6 C
09.03.2013 07:00 0,1 C 79 % 1008,0 hPa 0,0 l/m 10,1 km/h (2 Bft) SO -3,1 C -3,0 C
09.03.2013 08:00 0,3 C 77 % 1008,1 hPa 0,0 l/m 10,6 km/h (2 Bft) O -3,2 C -2,8 C
09.03.2013 09:00 0,7 C 76 % 1007,8 hPa 0,0 l/m 10,7 km/h (2 Bft) O-SO -3,0 C -2,6 C
09.03.2013 10:00 1,1 C 75 % 1007,4 hPa 0,0 l/m 13,8 km/h (3 Bft) O-SO -2,7 C -2,6 C
09.03.2013 11:00 1,7 C 74 % 1007,1 hPa 0,0 l/m 12,3 km/h (3 Bft) O -2,5 C -1,6 C
09.03.2013 12:00 1,9 C 74 % 1006,7 hPa 0,0 l/m 16,6 km/h (3 Bft) O-SO -2,3 C -2,1 C
09.03.2013 13:00 1,5 C 80 % 1006,4 hPa 0,0 l/m 8,3 km/h (2 Bft) SO -1,6 C -0,9 C
09.03.2013 14:00 1,2 C 83 % 1006,0 hPa 0,0 l/m 9,7 km/h (2 Bft) O-SO -1,3 C -1,5 C
09.03.2013 15:00 0,6 C 87 % 1005,9 hPa 0,0 l/m 11,3 km/h (2 Bft) O-SO -1,2 C -2,7 C
09.03.2013 16:00 0,4 C 90 % 1005,6 hPa 0,0 l/m 8,9 km/h (2 Bft) SO -1,1 C -2,3 C
09.03.2013 17:00 0,3 C 90 % 1005,3 hPa 0,5 l/m 8,5 km/h (2 Bft) O -1,1 C -2,5 C
09.03.2013 18:00 0,2 C 91 % 1005,6 hPa 0,0 l/m 9,2 km/h (2 Bft) O-SO -1,2 C -2,7 C
09.03.2013 19:00 0,1 C 90 % 1005,4 hPa 0,0 l/m 9,3 km/h (2 Bft) O -1,4 C -2,9 C
09.03.2013 20:00 -0,2 C 90 % 1005,0 hPa 0,0 l/m 11,3 km/h (2 Bft) O-SO -1,6 C -3,7 C
09.03.2013 21:00 -0,4 C 90 % 1004,8 hPa 0,0 l/m 10,4 km/h (2 Bft) SO -1,8 C -3,7 C
09.03.2013 22:00 -0,5 C 90 % 1004,5 hPa 0,0 l/m 11,5 km/h (2 Bft) O -1,9 C -4,1 C
09.03.2013 23:00 -0,6 C 91 % 1004,0 hPa 0,0 l/m 9,6 km/h (2 Bft) O -1,9 C -3,7 C
10.03.2013 00:00 -0,7 C 91 % 1003,3 hPa 0,0 l/m 8,7 km/h (2 Bft) O -2,0 C -3,7 C
10.03.2013 01:00 -0,8 C 91 % 1003,0 hPa 0,0 l/m 10,9 km/h (2 Bft) O-SO -2,1 C -4,2 C
10.03.2013 02:00 -0,9 C 91 % 1002,5 hPa 0,0 l/m 10,8 km/h (2 Bft) O-NO -2,1 C -4,4 C
10.03.2013 03:00 -1,1 C 92 % 1002,0 hPa 0,0 l/m 7,9 km/h (2 Bft) O-NO -2,3 C -3,5 C
10.03.2013 04:00 -1,3 C 91 % 1001,6 hPa 0,0 l/m 9,1 km/h (2 Bft) O-NO -2,5 C -4,4 C
10.03.2013 05:00 -1,8 C 92 % 1001,3 hPa 0,0 l/m 9,0 km/h (2 Bft) O-SO -2,9 C -4,8 C
10.03.2013 06:00 -2,1 C 92 % 1001,3 hPa 0,0 l/m 10,7 km/h (2 Bft) O-NO -3,2 C -5,7 C
10.03.2013 07:00 -2,3 C 92 % 1001,5 hPa 0,0 l/m 12,6 km/h (3 Bft) NO -3,4 C -6,5 C
10.03.2013 08:00 -2,4 C 91 % 1001,8 hPa 0,0 l/m 11,1 km/h (2 Bft) O-NO -3,6 C -6,3 C
10.03.2013 09:00 -2,3 C 89 % 1001,9 hPa 0,0 l/m 12,5 km/h (3 Bft) O-NO -3,9 C -6,6 C
10.03.2013 10:00 -1,7 C 85 % 1002,3 hPa 0,0 l/m 11,0 km/h (2 Bft) NO -3,9 C -5,5 C
10.03.2013 11:00 -1,4 C 83 % 1002,7 hPa 0,0 l/m 12,2 km/h (2 Bft) O-NO -3,9 C -5,5 C
10.03.2013 12:00 -0,9 C 80 % 1003,2 hPa 0,0 l/m 11,9 km/h (2 Bft) O-NO -3,9 C -4,7 C
10.03.2013 13:00 -0,8 C 78 % 1003,2 hPa 0,0 l/m 10,9 km/h (2 Bft) O-NO -4,1 C -4,3 C
10.03.2013 14:00 -1,2 C 78 % 1003,4 hPa 0,0 l/m 9,7 km/h (2 Bft) O-NO -4,5 C -4,5 C
10.03.2013 15:00 -1,7 C 82 % 1003,5 hPa 0,0 l/m 11,1 km/h (2 Bft) NO -4,4 C -5,3 C
10.03.2013 16:00 -2,3 C 84 % 1003,7 hPa 0,0 l/m 8,4 km/h (2 Bft) O-NO -4,7 C -5,4 C
10.03.2013 17:00 -2,8 C 86 % 1004,1 hPa 0,0 l/m 7,1 km/h (2 Bft) O-NO -4,9 C -5,3 C
10.03.2013 18:00 -3,2 C 87 % 1004,6 hPa 0,0 l/m 7,0 km/h (2 Bft) NO -5,1 C -5,8 C
10.03.2013 19:00 -3,5 C 87 % 1005,2 hPa 0,0 l/m 6,8 km/h (2 Bft) O-NO -5,4 C -6,1 C
10.03.2013 20:00 -3,7 C 87 % 1005,5 hPa 0,0 l/m 8,3 km/h (2 Bft) O-NO -5,5 C -7,1 C
10.03.2013 21:00 -3,9 C 87 % 1005,8 hPa 0,0 l/m 6,2 km/h (2 Bft) O-NO -5,8 C -6,0 C
10.03.2013 22:00 -4,3 C 87 % 1006,0 hPa 0,0 l/m 5,2 km/h (1 Bft) NO -6,2 C -6,5 C
10.03.2013 23:00 -4,9 C 87 % 1006,3 hPa 0,0 l/m 5,0 km/h (1 Bft) O-NO -6,7 C -6,7 C
Min-Datum _ 10.03.13 05.03.13 10.03.13 - 04.03.13 - 10.03.13 10.03.13
_ Min-Zeit 23:56 15:21 05:51 - 00:01 - 23:56 23:51
Minimum _ -5,2 C 42 % 1001,1 hPa - 0,0 km/h (0 Bft) - -7,2 C -9,2 C
Max-Datum _ 05.03.13 10.03.13 04.03.13 08.03.13 08.03.13 - 06.03.13 05.03.13
_ Max-Zeit 15:26 02:46 08:56 06:01 12:06 - 13:31 15:26
Maximum _ 12,4 C 92 % 1024,9 hPa 0,5 l/m 33,5 km/h
O-SO (5 Bft)
- 3,3 C 12,4 C
Durchschnitt _ 2,2 C 78 % 1009,9 hPa #1,0 l/m 7,5 km/h (2 Bft) O-SO -1,4 C 0,4 C
(c) by David Heller